sensor_id;sensor_type;location;lat;lon;timestamp;P1;durP1;ratioP1;P2;durP2;ratioP2
6089;SDS011;3073;42.660;23.316;2022-08-19T00:01:19;13.57;;;7.63;;
6089;SDS011;3073;42.660;23.316;2022-08-19T00:03:46;10.87;;;7.77;;
6089;SDS011;3073;42.660;23.316;2022-08-19T00:06:13;11.80;;;7.47;;
6089;SDS011;3073;42.660;23.316;2022-08-19T00:08:40;12.80;;;7.63;;
6089;SDS011;3073;42.660;23.316;2022-08-19T00:11:09;20.50;;;8.83;;
6089;SDS011;3073;42.660;23.316;2022-08-19T00:13:36;13.03;;;7.37;;
6089;SDS011;3073;42.660;23.316;2022-08-19T00:16:04;13.83;;;7.50;;
6089;SDS011;3073;42.660;23.316;2022-08-19T00:18:31;9.80;;;7.87;;
6089;SDS011;3073;42.660;23.316;2022-08-19T00:20:58;13.77;;;8.30;;
6089;SDS011;3073;42.660;23.316;2022-08-19T00:23:25;12.03;;;8.57;;
6089;SDS011;3073;42.660;23.316;2022-08-19T00:25:53;15.33;;;7.90;;
6089;SDS011;3073;42.660;23.316;2022-08-19T00:28:21;11.60;;;8.33;;
6089;SDS011;3073;42.660;23.316;2022-08-19T00:30:48;14.70;;;8.47;;
6089;SDS011;3073;42.660;23.316;2022-08-19T00:33:16;9.73;;;6.90;;
6089;SDS011;3073;42.660;23.316;2022-08-19T00:35:43;11.97;;;7.57;;
6089;SDS011;3073;42.660;23.316;2022-08-19T00:38:10;9.27;;;7.33;;
6089;SDS011;3073;42.660;23.316;2022-08-19T00:40:37;9.37;;;7.63;;
6089;SDS011;3073;42.660;23.316;2022-08-19T00:43:07;14.33;;;7.80;;
6089;SDS011;3073;42.660;23.316;2022-08-19T00:45:36;15.40;;;7.77;;
6089;SDS011;3073;42.660;23.316;2022-08-19T00:48:06;12.53;;;8.17;;
6089;SDS011;3073;42.660;23.316;2022-08-19T00:50:33;13.60;;;7.77;;
6089;SDS011;3073;42.660;23.316;2022-08-19T00:53:01;12.60;;;8.33;;
6089;SDS011;3073;42.660;23.316;2022-08-19T00:55:29;17.03;;;8.30;;
6089;SDS011;3073;42.660;23.316;2022-08-19T00:57:58;13.27;;;8.40;;
6089;SDS011;3073;42.660;23.316;2022-08-19T01:00:29;9.83;;;8.83;;
6089;SDS011;3073;42.660;23.316;2022-08-19T01:03:03;10.20;;;7.93;;
6089;SDS011;3073;42.660;23.316;2022-08-19T01:05:35;10.80;;;8.70;;
6089;SDS011;3073;42.660;23.316;2022-08-19T01:08:03;15.57;;;7.80;;
6089;SDS011;3073;42.660;23.316;2022-08-19T01:10:32;20.47;;;9.10;;
6089;SDS011;3073;42.660;23.316;2022-08-19T01:13:03;16.90;;;7.33;;
6089;SDS011;3073;42.660;23.316;2022-08-19T01:15:31;20.10;;;8.70;;
6089;SDS011;3073;42.660;23.316;2022-08-19T01:18:01;16.03;;;8.10;;
6089;SDS011;3073;42.660;23.316;2022-08-19T01:20:33;22.63;;;9.40;;
6089;SDS011;3073;42.660;23.316;2022-08-19T01:23:02;18.73;;;7.40;;
6089;SDS011;3073;42.660;23.316;2022-08-19T01:25:31;16.43;;;8.63;;
6089;SDS011;3073;42.660;23.316;2022-08-19T01:28:01;20.40;;;8.40;;
6089;SDS011;3073;42.660;23.316;2022-08-19T01:30:30;20.40;;;7.77;;
6089;SDS011;3073;42.660;23.316;2022-08-19T01:33:00;21.27;;;9.40;;
6089;SDS011;3073;42.660;23.316;2022-08-19T01:35:30;12.13;;;7.77;;
6089;SDS011;3073;42.660;23.316;2022-08-19T01:37:59;14.27;;;8.30;;
6089;SDS011;3073;42.660;23.316;2022-08-19T01:40:31;16.63;;;8.07;;
6089;SDS011;3073;42.660;23.316;2022-08-19T01:43:00;13.97;;;8.30;;
6089;SDS011;3073;42.660;23.316;2022-08-19T01:45:27;15.37;;;8.93;;
6089;SDS011;3073;42.660;23.316;2022-08-19T01:47:57;13.17;;;8.10;;
6089;SDS011;3073;42.660;23.316;2022-08-19T01:50:26;15.77;;;8.27;;
6089;SDS011;3073;42.660;23.316;2022-08-19T01:52:54;19.60;;;8.67;;
6089;SDS011;3073;42.660;23.316;2022-08-19T01:55:22;13.73;;;7.33;;
6089;SDS011;3073;42.660;23.316;2022-08-19T01:57:50;20.60;;;9.07;;
6089;SDS011;3073;42.660;23.316;2022-08-19T02:00:22;11.00;;;8.93;;
6089;SDS011;3073;42.660;23.316;2022-08-19T02:02:51;10.03;;;8.00;;
6089;SDS011;3073;42.660;23.316;2022-08-19T02:05:18;13.10;;;8.63;;
6089;SDS011;3073;42.660;23.316;2022-08-19T02:07:46;11.20;;;8.90;;
6089;SDS011;3073;42.660;23.316;2022-08-19T02:10:15;16.00;;;8.30;;
6089;SDS011;3073;42.660;23.316;2022-08-19T02:12:45;11.00;;;8.67;;
6089;SDS011;3073;42.660;23.316;2022-08-19T02:15:12;11.83;;;8.70;;
6089;SDS011;3073;42.660;23.316;2022-08-19T02:17:39;10.13;;;7.33;;
6089;SDS011;3073;42.660;23.316;2022-08-19T02:20:07;12.63;;;7.93;;
6089;SDS011;3073;42.660;23.316;2022-08-19T02:22:35;11.03;;;7.90;;
6089;SDS011;3073;42.660;23.316;2022-08-19T02:25:02;18.93;;;8.50;;
6089;SDS011;3073;42.660;23.316;2022-08-19T02:27:30;11.67;;;8.47;;
6089;SDS011;3073;42.660;23.316;2022-08-19T02:29:59;16.93;;;8.33;;
6089;SDS011;3073;42.660;23.316;2022-08-19T02:32:27;11.53;;;8.90;;
6089;SDS011;3073;42.660;23.316;2022-08-19T02:34:55;11.30;;;8.70;;
6089;SDS011;3073;42.660;23.316;2022-08-19T02:37:22;9.57;;;8.13;;
6089;SDS011;3073;42.660;23.316;2022-08-19T02:40:07;14.70;;;9.20;;
6089;SDS011;3073;42.660;23.316;2022-08-19T02:42:34;15.10;;;10.40;;
6089;SDS011;3073;42.660;23.316;2022-08-19T02:45:02;13.10;;;9.10;;
6089;SDS011;3073;42.660;23.316;2022-08-19T02:47:30;12.50;;;9.10;;
6089;SDS011;3073;42.660;23.316;2022-08-19T02:49:57;15.73;;;9.20;;
6089;SDS011;3073;42.660;23.316;2022-08-19T02:52:24;13.23;;;9.50;;
6089;SDS011;3073;42.660;23.316;2022-08-19T02:54:52;12.40;;;8.87;;
6089;SDS011;3073;42.660;23.316;2022-08-19T02:57:22;15.23;;;9.87;;
6089;SDS011;3073;42.660;23.316;2022-08-19T02:59:49;19.23;;;9.60;;
6089;SDS011;3073;42.660;23.316;2022-08-19T03:02:18;18.30;;;10.27;;
6089;SDS011;3073;42.660;23.316;2022-08-19T03:04:45;12.00;;;9.30;;
6089;SDS011;3073;42.660;23.316;2022-08-19T03:07:13;12.43;;;9.77;;
6089;SDS011;3073;42.660;23.316;2022-08-19T03:09:40;16.77;;;9.70;;
6089;SDS011;3073;42.660;23.316;2022-08-19T03:12:08;16.73;;;9.10;;
6089;SDS011;3073;42.660;23.316;2022-08-19T03:14:36;11.27;;;9.40;;
6089;SDS011;3073;42.660;23.316;2022-08-19T03:17:03;22.10;;;10.17;;
6089;SDS011;3073;42.660;23.316;2022-08-19T03:19:34;21.03;;;9.73;;
6089;SDS011;3073;42.660;23.316;2022-08-19T03:22:01;18.90;;;11.43;;
6089;SDS011;3073;42.660;23.316;2022-08-19T03:24:30;13.90;;;9.73;;
6089;SDS011;3073;42.660;23.316;2022-08-19T03:26:57;16.60;;;10.50;;
6089;SDS011;3073;42.660;23.316;2022-08-19T03:29:25;15.53;;;9.40;;
6089;SDS011;3073;42.660;23.316;2022-08-19T03:31:53;12.63;;;8.97;;
6089;SDS011;3073;42.660;23.316;2022-08-19T03:34:21;18.43;;;10.37;;
6089;SDS011;3073;42.660;23.316;2022-08-19T03:36:52;16.77;;;10.87;;
6089;SDS011;3073;42.660;23.316;2022-08-19T03:39:19;13.83;;;9.50;;
6089;SDS011;3073;42.660;23.316;2022-08-19T03:41:47;15.40;;;10.90;;
6089;SDS011;3073;42.660;23.316;2022-08-19T03:44:18;17.73;;;10.70;;
6089;SDS011;3073;42.660;23.316;2022-08-19T03:46:47;17.40;;;10.47;;
6089;SDS011;3073;42.660;23.316;2022-08-19T03:49:16;12.63;;;9.43;;
6089;SDS011;3073;42.660;23.316;2022-08-19T03:51:43;15.57;;;9.70;;
6089;SDS011;3073;42.660;23.316;2022-08-19T03:54:14;27.53;;;10.63;;
6089;SDS011;3073;42.660;23.316;2022-08-19T03:56:43;10.20;;;8.70;;
6089;SDS011;3073;42.660;23.316;2022-08-19T03:59:13;17.90;;;9.80;;
6089;SDS011;3073;42.660;23.316;2022-08-19T04:01:43;16.23;;;9.83;;
6089;SDS011;3073;42.660;23.316;2022-08-19T04:04:10;19.03;;;10.00;;
6089;SDS011;3073;42.660;23.316;2022-08-19T04:06:38;17.87;;;9.00;;
6089;SDS011;3073;42.660;23.316;2022-08-19T04:09:09;17.73;;;10.37;;
6089;SDS011;3073;42.660;23.316;2022-08-19T04:11:39;14.57;;;10.00;;
6089;SDS011;3073;42.660;23.316;2022-08-19T04:14:09;13.30;;;10.50;;
6089;SDS011;3073;42.660;23.316;2022-08-19T04:16:37;17.10;;;9.63;;
6089;SDS011;3073;42.660;23.316;2022-08-19T04:19:04;16.77;;;11.10;;
6089;SDS011;3073;42.660;23.316;2022-08-19T04:21:31;24.20;;;10.50;;
6089;SDS011;3073;42.660;23.316;2022-08-19T04:23:59;19.50;;;10.23;;
6089;SDS011;3073;42.660;23.316;2022-08-19T04:26:28;17.63;;;10.47;;
6089;SDS011;3073;42.660;23.316;2022-08-19T04:28:58;18.60;;;11.03;;
6089;SDS011;3073;42.660;23.316;2022-08-19T04:31:26;14.83;;;10.80;;
6089;SDS011;3073;42.660;23.316;2022-08-19T04:33:55;19.73;;;11.00;;
6089;SDS011;3073;42.660;23.316;2022-08-19T04:36:23;16.20;;;10.20;;
6089;SDS011;3073;42.660;23.316;2022-08-19T04:38:53;28.23;;;13.07;;
6089;SDS011;3073;42.660;23.316;2022-08-19T04:41:21;24.87;;;13.30;;
6089;SDS011;3073;42.660;23.316;2022-08-19T04:44:07;34.97;;;17.00;;
6089;SDS011;3073;42.660;23.316;2022-08-19T04:46:36;28.80;;;14.47;;
6089;SDS011;3073;42.660;23.316;2022-08-19T04:49:04;40.77;;;13.77;;
6089;SDS011;3073;42.660;23.316;2022-08-19T04:51:33;29.07;;;13.10;;
6089;SDS011;3073;42.660;23.316;2022-08-19T04:54:02;40.50;;;12.93;;
6089;SDS011;3073;42.660;23.316;2022-08-19T04:56:29;27.27;;;12.47;;
6089;SDS011;3073;42.660;23.316;2022-08-19T04:58:58;26.70;;;12.23;;
6089;SDS011;3073;42.660;23.316;2022-08-19T05:01:32;29.07;;;15.60;;
6089;SDS011;3073;42.660;23.316;2022-08-19T05:04:02;26.60;;;14.30;;
6089;SDS011;3073;42.660;23.316;2022-08-19T05:06:32;27.40;;;12.30;;
6089;SDS011;3073;42.660;23.316;2022-08-19T05:09:00;25.93;;;13.03;;
6089;SDS011;3073;42.660;23.316;2022-08-19T05:11:28;30.63;;;12.40;;
6089;SDS011;3073;42.660;23.316;2022-08-19T05:13:59;22.90;;;12.77;;
6089;SDS011;3073;42.660;23.316;2022-08-19T05:16:27;26.40;;;14.70;;
6089;SDS011;3073;42.660;23.316;2022-08-19T05:18:55;26.90;;;12.90;;
6089;SDS011;3073;42.660;23.316;2022-08-19T05:21:40;18.33;;;12.17;;
6089;SDS011;3073;42.660;23.316;2022-08-19T05:24:26;25.00;;;11.83;;
6089;SDS011;3073;42.660;23.316;2022-08-19T05:26:54;19.47;;;12.30;;
6089;SDS011;3073;42.660;23.316;2022-08-19T05:29:23;20.50;;;12.70;;
6089;SDS011;3073;42.660;23.316;2022-08-19T05:31:52;17.53;;;11.90;;
6089;SDS011;3073;42.660;23.316;2022-08-19T05:34:23;20.17;;;11.57;;
6089;SDS011;3073;42.660;23.316;2022-08-19T05:36:51;24.73;;;12.17;;
6089;SDS011;3073;42.660;23.316;2022-08-19T05:39:22;15.43;;;9.97;;
6089;SDS011;3073;42.660;23.316;2022-08-19T05:41:52;15.90;;;10.50;;
6089;SDS011;3073;42.660;23.316;2022-08-19T05:44:22;17.33;;;10.50;;
6089;SDS011;3073;42.660;23.316;2022-08-19T05:46:49;16.60;;;10.20;;
6089;SDS011;3073;42.660;23.316;2022-08-19T05:49:19;13.90;;;10.65;;
6089;SDS011;3073;42.660;23.316;2022-08-19T05:51:49;16.80;;;10.00;;
6089;SDS011;3073;42.660;23.316;2022-08-19T05:54:17;13.30;;;9.77;;
6089;SDS011;3073;42.660;23.316;2022-08-19T05:56:44;20.52;;;9.40;;
6089;SDS011;3073;42.660;23.316;2022-08-19T05:59:13;20.90;;;9.93;;
6089;SDS011;3073;42.660;23.316;2022-08-19T06:01:43;15.23;;;9.00;;
6089;SDS011;3073;42.660;23.316;2022-08-19T06:04:12;11.88;;;9.13;;
6089;SDS011;3073;42.660;23.316;2022-08-19T06:06:41;24.75;;;9.98;;
6089;SDS011;3073;42.660;23.316;2022-08-19T06:09:08;12.90;;;9.93;;
6089;SDS011;3073;42.660;23.316;2022-08-19T06:11:37;14.57;;;8.60;;
6089;SDS011;3073;42.660;23.316;2022-08-19T06:14:07;19.08;;;9.63;;
6089;SDS011;3073;42.660;23.316;2022-08-19T06:16:36;16.05;;;8.48;;
6089;SDS011;3073;42.660;23.316;2022-08-19T06:19:05;17.35;;;9.13;;
6089;SDS011;3073;42.660;23.316;2022-08-19T06:21:34;18.90;;;9.48;;
6089;SDS011;3073;42.660;23.316;2022-08-19T06:24:04;22.50;;;10.55;;
6089;SDS011;3073;42.660;23.316;2022-08-19T06:26:33;19.23;;;10.68;;
6089;SDS011;3073;42.660;23.316;2022-08-19T06:29:00;18.48;;;9.65;;
6089;SDS011;3073;42.660;23.316;2022-08-19T06:31:28;15.32;;;8.85;;
6089;SDS011;3073;42.660;23.316;2022-08-19T06:33:58;13.45;;;9.40;;
6089;SDS011;3073;42.660;23.316;2022-08-19T06:36:27;21.13;;;8.88;;
6089;SDS011;3073;42.660;23.316;2022-08-19T06:38:59;34.88;;;9.00;;
6089;SDS011;3073;42.660;23.316;2022-08-19T06:41:29;16.05;;;8.48;;
6089;SDS011;3073;42.660;23.316;2022-08-19T06:43:57;13.25;;;7.95;;
6089;SDS011;3073;42.660;23.316;2022-08-19T06:46:24;20.30;;;8.88;;
6089;SDS011;3073;42.660;23.316;2022-08-19T06:48:51;15.02;;;8.57;;
6089;SDS011;3073;42.660;23.316;2022-08-19T06:51:20;14.20;;;8.07;;
6089;SDS011;3073;42.660;23.316;2022-08-19T06:53:49;20.98;;;8.88;;
6089;SDS011;3073;42.660;23.316;2022-08-19T06:56:18;12.45;;;9.60;;
6089;SDS011;3073;42.660;23.316;2022-08-19T06:58:48;16.98;;;8.18;;
6089;SDS011;3073;42.660;23.316;2022-08-19T07:01:16;12.85;;;7.75;;
6089;SDS011;3073;42.660;23.316;2022-08-19T07:03:44;14.65;;;6.70;;
6089;SDS011;3073;42.660;23.316;2022-08-19T07:06:12;10.95;;;7.95;;
6089;SDS011;3073;42.660;23.316;2022-08-19T07:08:42;18.48;;;8.05;;
6089;SDS011;3073;42.660;23.316;2022-08-19T07:11:11;11.43;;;7.40;;
6089;SDS011;3073;42.660;23.316;2022-08-19T07:13:39;15.63;;;8.75;;
6089;SDS011;3073;42.660;23.316;2022-08-19T07:16:10;23.90;;;9.15;;
6089;SDS011;3073;42.660;23.316;2022-08-19T07:18:39;16.23;;;8.70;;
6089;SDS011;3073;42.660;23.316;2022-08-19T07:21:07;17.83;;;8.65;;
6089;SDS011;3073;42.660;23.316;2022-08-19T07:23:34;15.55;;;7.28;;
6089;SDS011;3073;42.660;23.316;2022-08-19T07:26:04;19.10;;;8.30;;
6089;SDS011;3073;42.660;23.316;2022-08-19T07:28:32;12.90;;;8.05;;
6089;SDS011;3073;42.660;23.316;2022-08-19T07:30:59;9.45;;;7.78;;
6089;SDS011;3073;42.660;23.316;2022-08-19T07:33:28;15.73;;;7.68;;
6089;SDS011;3073;42.660;23.316;2022-08-19T07:35:57;13.55;;;7.03;;
6089;SDS011;3073;42.660;23.316;2022-08-19T07:38:24;11.82;;;8.20;;
6089;SDS011;3073;42.660;23.316;2022-08-19T07:40:51;15.55;;;7.50;;
6089;SDS011;3073;42.660;23.316;2022-08-19T07:43:19;12.60;;;6.35;;
6089;SDS011;3073;42.660;23.316;2022-08-19T07:45:50;17.15;;;7.32;;
6089;SDS011;3073;42.660;23.316;2022-08-19T07:48:18;11.68;;;7.47;;
6089;SDS011;3073;42.660;23.316;2022-08-19T07:50:46;14.60;;;7.05;;
6089;SDS011;3073;42.660;23.316;2022-08-19T07:53:14;18.38;;;6.50;;
6089;SDS011;3073;42.660;23.316;2022-08-19T07:55:41;11.32;;;6.65;;
6089;SDS011;3073;42.660;23.316;2022-08-19T07:58:08;16.20;;;8.35;;
6089;SDS011;3073;42.660;23.316;2022-08-19T08:00:35;11.13;;;7.55;;
6089;SDS011;3073;42.660;23.316;2022-08-19T08:03:03;15.52;;;8.02;;
6089;SDS011;3073;42.660;23.316;2022-08-19T08:05:30;14.20;;;8.30;;
6089;SDS011;3073;42.660;23.316;2022-08-19T08:08:16;12.77;;;7.70;;
6089;SDS011;3073;42.660;23.316;2022-08-19T08:11:00;11.55;;;7.97;;
6089;SDS011;3073;42.660;23.316;2022-08-19T08:13:27;12.32;;;7.05;;
6089;SDS011;3073;42.660;23.316;2022-08-19T08:15:54;11.95;;;7.60;;
6089;SDS011;3073;42.660;23.316;2022-08-19T08:18:22;13.52;;;6.93;;
6089;SDS011;3073;42.660;23.316;2022-08-19T08:20:49;8.88;;;7.40;;
6089;SDS011;3073;42.660;23.316;2022-08-19T08:23:17;13.07;;;7.47;;
6089;SDS011;3073;42.660;23.316;2022-08-19T08:25:51;15.13;;;7.13;;
6089;SDS011;3073;42.660;23.316;2022-08-19T08:28:21;11.18;;;6.88;;
6089;SDS011;3073;42.660;23.316;2022-08-19T08:30:48;12.98;;;7.28;;
6089;SDS011;3073;42.660;23.316;2022-08-19T08:33:17;11.57;;;7.07;;
6089;SDS011;3073;42.660;23.316;2022-08-19T08:35:45;21.15;;;6.38;;
6089;SDS011;3073;42.660;23.316;2022-08-19T08:38:12;12.85;;;6.72;;
6089;SDS011;3073;42.660;23.316;2022-08-19T08:40:42;16.40;;;7.93;;
6089;SDS011;3073;42.660;23.316;2022-08-19T08:43:19;14.15;;;8.05;;
6089;SDS011;3073;42.660;23.316;2022-08-19T08:45:52;12.82;;;6.65;;
6089;SDS011;3073;42.660;23.316;2022-08-19T08:48:24;17.23;;;6.18;;
6089;SDS011;3073;42.660;23.316;2022-08-19T08:50:57;8.05;;;6.20;;
6089;SDS011;3073;42.660;23.316;2022-08-19T08:53:27;12.32;;;5.57;;
6089;SDS011;3073;42.660;23.316;2022-08-19T08:55:57;9.80;;;5.65;;
6089;SDS011;3073;42.660;23.316;2022-08-19T08:58:26;8.18;;;5.47;;
6089;SDS011;3073;42.660;23.316;2022-08-19T09:00:57;7.07;;;5.32;;
6089;SDS011;3073;42.660;23.316;2022-08-19T09:03:25;7.72;;;4.78;;
6089;SDS011;3073;42.660;23.316;2022-08-19T09:05:56;8.60;;;5.10;;
6089;SDS011;3073;42.660;23.316;2022-08-19T09:08:30;5.85;;;4.85;;
6089;SDS011;3073;42.660;23.316;2022-08-19T09:11:08;8.82;;;5.05;;
6089;SDS011;3073;42.660;23.316;2022-08-19T09:13:40;11.38;;;5.38;;
6089;SDS011;3073;42.660;23.316;2022-08-19T09:16:12;10.32;;;4.63;;
6089;SDS011;3073;42.660;23.316;2022-08-19T09:18:44;5.45;;;4.22;;
6089;SDS011;3073;42.660;23.316;2022-08-19T09:21:14;7.15;;;4.43;;
6089;SDS011;3073;42.660;23.316;2022-08-19T09:23:41;13.95;;;5.20;;
6089;SDS011;3073;42.660;23.316;2022-08-19T09:26:10;10.02;;;4.40;;
6089;SDS011;3073;42.660;23.316;2022-08-19T09:28:39;4.20;;;3.80;;
6089;SDS011;3073;42.660;23.316;2022-08-19T09:31:08;13.85;;;4.53;;
6089;SDS011;3073;42.660;23.316;2022-08-19T09:33:35;7.85;;;4.22;;
6089;SDS011;3073;42.660;23.316;2022-08-19T09:36:03;6.60;;;3.80;;
6089;SDS011;3073;42.660;23.316;2022-08-19T09:38:32;6.25;;;4.03;;
6089;SDS011;3073;42.660;23.316;2022-08-19T09:41:03;7.40;;;4.43;;
6089;SDS011;3073;42.660;23.316;2022-08-19T09:43:32;4.53;;;3.80;;
6089;SDS011;3073;42.660;23.316;2022-08-19T09:46:01;8.75;;;4.50;;
6089;SDS011;3073;42.660;23.316;2022-08-19T09:48:29;8.68;;;4.18;;
6089;SDS011;3073;42.660;23.316;2022-08-19T09:51:02;9.55;;;3.45;;
6089;SDS011;3073;42.660;23.316;2022-08-19T09:53:30;4.25;;;3.50;;
6089;SDS011;3073;42.660;23.316;2022-08-19T09:55:57;9.48;;;3.80;;
6089;SDS011;3073;42.660;23.316;2022-08-19T09:58:24;4.97;;;3.88;;
6089;SDS011;3073;42.660;23.316;2022-08-19T10:00:54;6.68;;;3.75;;
6089;SDS011;3073;42.660;23.316;2022-08-19T10:03:23;9.07;;;4.13;;
6089;SDS011;3073;42.660;23.316;2022-08-19T10:05:52;9.48;;;4.28;;
6089;SDS011;3073;42.660;23.316;2022-08-19T10:08:20;5.78;;;4.53;;
6089;SDS011;3073;42.660;23.316;2022-08-19T10:10:49;4.43;;;3.60;;
6089;SDS011;3073;42.660;23.316;2022-08-19T10:13:17;7.85;;;3.90;;
6089;SDS011;3073;42.660;23.316;2022-08-19T10:15:48;6.05;;;4.15;;
6089;SDS011;3073;42.660;23.316;2022-08-19T10:18:17;11.48;;;3.42;;
6089;SDS011;3073;42.660;23.316;2022-08-19T10:20:45;4.82;;;3.95;;
6089;SDS011;3073;42.660;23.316;2022-08-19T10:23:12;4.65;;;4.13;;
6089;SDS011;3073;42.660;23.316;2022-08-19T10:25:40;5.88;;;3.78;;
6089;SDS011;3073;42.660;23.316;2022-08-19T10:28:08;8.52;;;3.80;;
6089;SDS011;3073;42.660;23.316;2022-08-19T10:30:37;5.38;;;4.15;;
6089;SDS011;3073;42.660;23.316;2022-08-19T10:33:07;5.68;;;3.75;;
6089;SDS011;3073;42.660;23.316;2022-08-19T10:35:35;5.95;;;4.18;;
6089;SDS011;3073;42.660;23.316;2022-08-19T10:38:03;7.65;;;4.78;;
6089;SDS011;3073;42.660;23.316;2022-08-19T10:40:29;5.40;;;4.47;;
6089;SDS011;3073;42.660;23.316;2022-08-19T10:42:56;6.00;;;3.63;;
6089;SDS011;3073;42.660;23.316;2022-08-19T10:45:23;5.03;;;3.95;;
6089;SDS011;3073;42.660;23.316;2022-08-19T10:47:51;7.30;;;5.07;;
6089;SDS011;3073;42.660;23.316;2022-08-19T10:50:19;10.98;;;4.82;;
6089;SDS011;3073;42.660;23.316;2022-08-19T10:53:05;4.57;;;4.03;;
6089;SDS011;3073;42.660;23.316;2022-08-19T10:55:34;10.98;;;4.75;;
6089;SDS011;3073;42.660;23.316;2022-08-19T10:58:19;5.75;;;4.60;;
6089;SDS011;3073;42.660;23.316;2022-08-19T11:00:50;5.78;;;4.78;;
6089;SDS011;3073;42.660;23.316;2022-08-19T11:03:18;4.75;;;4.32;;
6089;SDS011;3073;42.660;23.316;2022-08-19T11:05:45;4.88;;;4.30;;
6089;SDS011;3073;42.660;23.316;2022-08-19T11:08:15;7.50;;;4.47;;
6089;SDS011;3073;42.660;23.316;2022-08-19T11:10:42;4.28;;;3.88;;
6089;SDS011;3073;42.660;23.316;2022-08-19T11:13:09;6.38;;;4.20;;
6089;SDS011;3073;42.660;23.316;2022-08-19T11:15:36;5.10;;;4.60;;
6089;SDS011;3073;42.660;23.316;2022-08-19T11:18:03;6.78;;;4.60;;
6089;SDS011;3073;42.660;23.316;2022-08-19T11:20:30;5.57;;;4.47;;
6089;SDS011;3073;42.660;23.316;2022-08-19T11:22:57;5.60;;;4.40;;
6089;SDS011;3073;42.660;23.316;2022-08-19T11:25:26;5.15;;;4.53;;
6089;SDS011;3073;42.660;23.316;2022-08-19T11:27:53;6.38;;;5.00;;
6089;SDS011;3073;42.660;23.316;2022-08-19T11:30:20;8.02;;;3.85;;
6089;SDS011;3073;42.660;23.316;2022-08-19T11:32:47;13.48;;;4.72;;
6089;SDS011;3073;42.660;23.316;2022-08-19T11:35:14;7.68;;;4.82;;
6089;SDS011;3073;42.660;23.316;2022-08-19T11:37:45;7.40;;;4.88;;
6089;SDS011;3073;42.660;23.316;2022-08-19T11:40:13;8.43;;;4.80;;
6089;SDS011;3073;42.660;23.316;2022-08-19T11:42:41;10.60;;;6.00;;
6089;SDS011;3073;42.660;23.316;2022-08-19T11:45:24;6.55;;;5.40;;
6089;SDS011;3073;42.660;23.316;2022-08-19T11:47:51;10.82;;;5.18;;
6089;SDS011;3073;42.660;23.316;2022-08-19T11:50:18;4.97;;;4.15;;
6089;SDS011;3073;42.660;23.316;2022-08-19T11:52:45;12.27;;;5.63;;
6089;SDS011;3073;42.660;23.316;2022-08-19T11:55:12;10.20;;;5.03;;
6089;SDS011;3073;42.660;23.316;2022-08-19T11:57:41;6.78;;;5.05;;
6089;SDS011;3073;42.660;23.316;2022-08-19T12:00:11;6.40;;;4.93;;
6089;SDS011;3073;42.660;23.316;2022-08-19T12:02:39;5.65;;;4.80;;
6089;SDS011;3073;42.660;23.316;2022-08-19T12:05:07;9.10;;;4.65;;
6089;SDS011;3073;42.660;23.316;2022-08-19T12:07:34;6.60;;;4.38;;
6089;SDS011;3073;42.660;23.316;2022-08-19T12:10:01;10.65;;;5.05;;
6089;SDS011;3073;42.660;23.316;2022-08-19T12:12:28;7.10;;;4.50;;
6089;SDS011;3073;42.660;23.316;2022-08-19T12:14:57;7.95;;;5.43;;
6089;SDS011;3073;42.660;23.316;2022-08-19T12:17:24;9.23;;;5.30;;
6089;SDS011;3073;42.660;23.316;2022-08-19T12:19:52;9.43;;;5.65;;
6089;SDS011;3073;42.660;23.316;2022-08-19T12:22:19;12.23;;;5.30;;
6089;SDS011;3073;42.660;23.316;2022-08-19T12:24:46;7.30;;;5.55;;
6089;SDS011;3073;42.660;23.316;2022-08-19T12:27:15;8.38;;;4.85;;
6089;SDS011;3073;42.660;23.316;2022-08-19T12:29:42;8.00;;;4.75;;
6089;SDS011;3073;42.660;23.316;2022-08-19T12:32:11;7.97;;;4.78;;
6089;SDS011;3073;42.660;23.316;2022-08-19T12:34:38;11.88;;;5.18;;
6089;SDS011;3073;42.660;23.316;2022-08-19T12:37:05;6.32;;;5.20;;
6089;SDS011;3073;42.660;23.316;2022-08-19T12:39:37;10.63;;;5.03;;
6089;SDS011;3073;42.660;23.316;2022-08-19T12:42:06;6.78;;;5.10;;
6089;SDS011;3073;42.660;23.316;2022-08-19T12:44:33;8.07;;;5.57;;
6089;SDS011;3073;42.660;23.316;2022-08-19T12:47:00;10.43;;;5.47;;
6089;SDS011;3073;42.660;23.316;2022-08-19T12:49:29;6.15;;;5.00;;
6089;SDS011;3073;42.660;23.316;2022-08-19T12:51:58;7.72;;;5.85;;
6089;SDS011;3073;42.660;23.316;2022-08-19T12:54:25;7.05;;;4.70;;
6089;SDS011;3073;42.660;23.316;2022-08-19T12:56:52;8.50;;;6.13;;
6089;SDS011;3073;42.660;23.316;2022-08-19T12:59:19;11.27;;;5.18;;
6089;SDS011;3073;42.660;23.316;2022-08-19T13:01:46;8.75;;;5.72;;
6089;SDS011;3073;42.660;23.316;2022-08-19T13:04:14;9.43;;;5.28;;
6089;SDS011;3073;42.660;23.316;2022-08-19T13:06:43;12.13;;;5.50;;
6089;SDS011;3073;42.660;23.316;2022-08-19T13:09:11;7.45;;;6.47;;
6089;SDS011;3073;42.660;23.316;2022-08-19T13:11:38;9.35;;;5.95;;
6089;SDS011;3073;42.660;23.316;2022-08-19T13:14:05;10.80;;;5.22;;
6089;SDS011;3073;42.660;23.316;2022-08-19T13:16:32;13.25;;;6.10;;
6089;SDS011;3073;42.660;23.316;2022-08-19T13:18:59;7.32;;;4.68;;
6089;SDS011;3073;42.660;23.316;2022-08-19T13:21:28;13.18;;;5.65;;
6089;SDS011;3073;42.660;23.316;2022-08-19T13:23:56;9.32;;;5.57;;
6089;SDS011;3073;42.660;23.316;2022-08-19T13:26:23;9.98;;;5.60;;
6089;SDS011;3073;42.660;23.316;2022-08-19T13:28:53;7.60;;;4.88;;
6089;SDS011;3073;42.660;23.316;2022-08-19T13:31:39;8.73;;;5.40;;
6089;SDS011;3073;42.660;23.316;2022-08-19T13:34:29;8.35;;;5.95;;
6089;SDS011;3073;42.660;23.316;2022-08-19T13:37:02;6.68;;;5.47;;
6089;SDS011;3073;42.660;23.316;2022-08-19T13:39:31;7.15;;;5.13;;
6089;SDS011;3073;42.660;23.316;2022-08-19T13:42:00;8.02;;;5.10;;
6089;SDS011;3073;42.660;23.316;2022-08-19T13:44:29;7.97;;;5.57;;
6089;SDS011;3073;42.660;23.316;2022-08-19T13:46:59;10.00;;;5.50;;
6089;SDS011;3073;42.660;23.316;2022-08-19T13:49:32;8.43;;;5.28;;
6089;SDS011;3073;42.660;23.316;2022-08-19T13:51:59;8.50;;;5.80;;
6089;SDS011;3073;42.660;23.316;2022-08-19T13:54:26;11.02;;;5.45;;
6089;SDS011;3073;42.660;23.316;2022-08-19T13:56:57;5.30;;;4.80;;
6089;SDS011;3073;42.660;23.316;2022-08-19T13:59:23;10.23;;;5.75;;
6089;SDS011;3073;42.660;23.316;2022-08-19T14:01:51;8.60;;;5.20;;
6089;SDS011;3073;42.660;23.316;2022-08-19T14:04:18;8.90;;;5.57;;
6089;SDS011;3073;42.660;23.316;2022-08-19T14:06:45;7.32;;;6.07;;
6089;SDS011;3073;42.660;23.316;2022-08-19T14:09:12;6.47;;;5.20;;
6089;SDS011;3073;42.660;23.316;2022-08-19T14:11:38;8.27;;;5.20;;
6089;SDS011;3073;42.660;23.316;2022-08-19T14:14:06;5.68;;;5.18;;
6089;SDS011;3073;42.660;23.316;2022-08-19T14:16:33;11.82;;;6.15;;
6089;SDS011;3073;42.660;23.316;2022-08-19T14:19:00;7.22;;;5.43;;
6089;SDS011;3073;42.660;23.316;2022-08-19T14:21:27;10.50;;;5.05;;
6089;SDS011;3073;42.660;23.316;2022-08-19T14:23:54;10.88;;;5.72;;
6089;SDS011;3073;42.660;23.316;2022-08-19T14:26:21;8.35;;;5.53;;
6089;SDS011;3073;42.660;23.316;2022-08-19T14:28:48;9.10;;;5.63;;
6089;SDS011;3073;42.660;23.316;2022-08-19T14:31:17;12.70;;;4.97;;
6089;SDS011;3073;42.660;23.316;2022-08-19T14:33:45;9.18;;;5.05;;
6089;SDS011;3073;42.660;23.316;2022-08-19T14:36:12;9.45;;;5.35;;
6089;SDS011;3073;42.660;23.316;2022-08-19T14:38:39;6.75;;;5.70;;
6089;SDS011;3073;42.660;23.316;2022-08-19T14:41:11;9.07;;;5.55;;
6089;SDS011;3073;42.660;23.316;2022-08-19T14:43:41;6.38;;;5.53;;
6089;SDS011;3073;42.660;23.316;2022-08-19T14:46:11;8.27;;;5.78;;
6089;SDS011;3073;42.660;23.316;2022-08-19T14:48:39;6.40;;;5.20;;
6089;SDS011;3073;42.660;23.316;2022-08-19T14:51:06;8.98;;;5.60;;
6089;SDS011;3073;42.660;23.316;2022-08-19T14:53:33;11.02;;;5.95;;
6089;SDS011;3073;42.660;23.316;2022-08-19T14:56:01;6.00;;;5.40;;
6089;SDS011;3073;42.660;23.316;2022-08-19T14:58:34;8.45;;;5.10;;
6089;SDS011;3073;42.660;23.316;2022-08-19T15:01:00;6.20;;;5.47;;